createdAt,value
2023-03-05T00:00:25.481Z,-145.20
2023-03-05T00:02:53.571Z,-145.20
2023-03-05T00:05:21.575Z,-145.20
2023-03-05T00:07:49.397Z,-145.20
2023-03-05T00:10:19.097Z,-145.20
2023-03-05T00:12:46.867Z,-145.20
2023-03-05T00:15:17.985Z,-145.20
2023-03-05T00:17:47.183Z,-145.20
2023-03-05T00:20:15.709Z,-145.20
2023-03-05T00:22:43.674Z,-145.20
2023-03-05T00:25:11.647Z,-145.20
2023-03-05T00:27:40.757Z,-145.20
2023-03-05T00:30:19.766Z,-145.20
2023-03-05T00:32:47.636Z,-145.20
2023-03-05T00:35:15.370Z,-145.20
2023-03-05T00:37:43.190Z,-145.20
2023-03-05T00:40:12.552Z,-145.20
2023-03-05T00:42:41.777Z,-145.20
2023-03-05T00:45:10.615Z,-145.20
2023-03-05T00:47:38.604Z,-145.20
2023-03-05T00:50:08.545Z,-145.20
2023-03-05T00:52:36.576Z,-145.20
2023-03-05T00:55:04.915Z,-145.20
2023-03-05T00:57:32.595Z,-145.20
2023-03-05T01:00:01.765Z,-145.20
2023-03-05T01:02:29.686Z,-145.20
2023-03-05T01:04:57.805Z,-145.20
2023-03-05T01:07:25.585Z,-145.20
2023-03-05T01:09:53.381Z,-145.20
2023-03-05T01:12:21.295Z,-145.20
2023-03-05T01:14:49.226Z,-145.20
2023-03-05T01:17:18.437Z,-145.20
2023-03-05T01:19:46.274Z,-145.20
2023-03-05T01:22:14.084Z,-145.20
2023-03-05T01:24:41.884Z,-145.20
2023-03-05T01:27:09.666Z,-145.20
2023-03-05T01:29:37.758Z,-145.20
2023-03-05T01:32:06.708Z,-145.20
2023-03-05T01:34:37.566Z,-145.20
2023-03-05T01:37:05.513Z,-145.20
2023-03-05T01:39:33.393Z,-145.20
2023-03-05T01:42:01.343Z,-145.20
2023-03-05T01:44:31.738Z,-145.20
2023-03-05T01:46:59.561Z,-145.20
2023-03-05T01:49:28.812Z,-145.20
2023-03-05T01:52:03.778Z,-145.20
2023-03-05T01:54:35.812Z,-145.20
2023-03-05T01:57:09.523Z,-145.20
2023-03-05T01:59:38.811Z,-145.20
2023-03-05T02:02:08.059Z,-145.20
2023-03-05T02:04:43.165Z,-145.20
2023-03-05T02:07:13.764Z,-145.20
2023-03-05T02:09:44.756Z,-145.20
2023-03-05T02:12:14.007Z,-145.20
2023-03-05T02:14:44.207Z,-145.20
2023-03-05T02:17:13.254Z,-145.20
2023-03-05T02:19:49.378Z,-145.20
2023-03-05T02:22:20.316Z,-145.20
2023-03-05T02:24:48.226Z,-145.20
2023-03-05T02:27:17.547Z,-145.20
2023-03-05T02:29:47.463Z,-145.20
2023-03-05T02:32:15.557Z,-145.20
2023-03-05T02:34:43.407Z,-145.20
2023-03-05T02:37:11.132Z,-145.20
2023-03-05T02:39:40.315Z,-145.20
2023-03-05T02:42:08.347Z,-145.20
2023-03-05T02:44:36.309Z,-145.20
2023-03-05T02:47:04.108Z,-145.20
2023-03-05T02:49:31.874Z,-145.20
2023-03-05T02:51:59.787Z,-145.20
2023-03-05T02:54:27.666Z,-145.20
2023-03-05T02:56:56.900Z,-145.20
2023-03-05T02:59:24.726Z,-145.20
2023-03-05T03:01:52.550Z,-145.20
2023-03-05T03:04:20.424Z,-145.20
2023-03-05T03:06:48.598Z,-145.20
2023-03-05T03:09:16.498Z,-145.20
2023-03-05T03:11:44.299Z,-145.20
2023-03-05T03:14:13.559Z,-145.20
2023-03-05T03:16:41.488Z,-145.20
2023-03-05T03:19:09.550Z,-145.20
2023-03-05T03:21:37.576Z,-145.20
2023-03-05T03:24:05.877Z,-145.20
2023-03-05T03:26:33.957Z,-145.20
2023-03-05T03:29:01.917Z,-145.20
2023-03-05T03:31:31.093Z,-145.20
2023-03-05T03:33:58.888Z,-145.20
2023-03-05T03:36:26.708Z,-145.20
2023-03-05T03:38:57.436Z,-145.20
2023-03-05T03:41:25.512Z,-145.20
2023-03-05T03:43:53.695Z,-145.20
2023-03-05T03:46:21.531Z,-145.20
2023-03-05T03:48:52.839Z,-145.20
2023-03-05T03:51:20.646Z,-145.20
2023-03-05T03:53:51.008Z,-145.20
2023-03-05T03:56:18.932Z,-145.20
2023-03-05T03:58:46.728Z,-145.20
2023-03-05T04:01:14.745Z,-145.20
2023-03-05T04:03:42.584Z,-145.20
2023-03-05T04:06:12.252Z,-145.20
2023-03-05T04:08:40.501Z,-145.20
2023-03-05T04:11:08.394Z,-145.20
2023-03-05T04:13:36.454Z,-145.20
2023-03-05T04:16:04.482Z,-145.20
2023-03-05T04:18:32.652Z,-145.20
2023-03-05T04:21:00.549Z,-145.20
2023-03-05T04:23:29.669Z,4.15
2023-03-05T04:25:57.571Z,2.31
2023-03-05T04:28:25.494Z,2.28
2023-03-05T04:30:53.549Z,2.27
2023-03-05T04:33:21.593Z,2.22
2023-03-05T04:35:49.709Z,2.17
2023-03-05T04:38:17.674Z,2.16
2023-03-05T04:40:47.423Z,2.04
2023-03-05T04:43:15.481Z,1.97
2023-03-05T04:45:44.283Z,2.01
2023-03-05T04:48:13.004Z,2.05
2023-03-05T04:50:40.807Z,2.01
2023-03-05T04:53:08.689Z,1.89
2023-03-05T04:55:36.510Z,1.99
2023-03-05T04:58:05.808Z,2.01
2023-03-05T05:00:33.853Z,1.91
2023-03-05T05:03:01.859Z,1.98
2023-03-05T05:05:30.210Z,1.94
2023-03-05T05:07:59.778Z,1.97
2023-03-05T05:10:28.641Z,2.01
2023-03-05T05:12:56.655Z,1.96
2023-03-05T05:15:25.902Z,1.92
2023-03-05T05:17:53.835Z,1.88
2023-03-05T05:20:21.917Z,1.86
2023-03-05T05:22:49.808Z,1.92
2023-03-05T05:25:17.844Z,1.77
2023-03-05T05:27:45.525Z,1.84
2023-03-05T05:30:14.219Z,1.82
2023-03-05T05:32:43.374Z,1.74
2023-03-05T05:35:12.125Z,1.72
2023-03-05T05:37:40.063Z,1.82
2023-03-05T05:40:09.652Z,1.83
2023-03-05T05:42:37.862Z,1.82
2023-03-05T05:45:06.785Z,1.89
2023-03-05T05:47:34.653Z,1.89
2023-03-05T05:50:03.822Z,1.79
2023-03-05T05:52:32.051Z,1.78
2023-03-05T05:54:59.714Z,1.89
2023-03-05T05:57:27.716Z,1.97
2023-03-05T05:59:55.618Z,1.98
2023-03-05T06:02:23.568Z,1.97
2023-03-05T06:04:51.444Z,2.01
2023-03-05T06:07:20.520Z,2.02
2023-03-05T06:09:48.454Z,2.08
2023-03-05T06:12:16.416Z,2.12
2023-03-05T06:14:44.143Z,2.11
2023-03-05T06:17:16.901Z,2.13
2023-03-05T06:19:47.025Z,2.18
2023-03-05T06:22:15.028Z,2.22
2023-03-05T06:24:44.074Z,2.22
2023-03-05T06:27:11.812Z,2.33
2023-03-05T06:29:39.822Z,2.33
2023-03-05T06:32:08.147Z,2.36
2023-03-05T06:34:35.962Z,2.37
2023-03-05T06:37:03.968Z,2.35
2023-03-05T06:39:32.610Z,2.52
2023-03-05T06:42:01.830Z,2.59
2023-03-05T06:44:29.867Z,2.65
2023-03-05T06:46:57.730Z,2.72
2023-03-05T06:49:25.848Z,2.78
2023-03-05T06:51:53.719Z,2.88
2023-03-05T06:54:21.470Z,2.94
2023-03-05T06:56:49.782Z,2.70
2023-03-05T06:59:21.642Z,2.80
2023-03-05T07:01:49.707Z,2.84
2023-03-05T07:04:17.563Z,2.84
2023-03-05T07:06:45.877Z,2.84
2023-03-05T07:09:16.339Z,2.87
2023-03-05T07:11:44.358Z,2.91
2023-03-05T07:14:12.200Z,2.99
2023-03-05T07:16:41.675Z,3.11
2023-03-05T07:19:10.938Z,3.25
2023-03-05T07:21:40.040Z,3.21
2023-03-05T07:24:09.690Z,3.12
2023-03-05T07:26:37.397Z,3.06
2023-03-05T07:29:05.566Z,3.09
2023-03-05T07:31:33.848Z,3.19
2023-03-05T07:34:04.227Z,3.23
2023-03-05T07:36:34.751Z,3.05
2023-03-05T07:39:04.826Z,3.05
2023-03-05T07:41:32.897Z,3.00
2023-03-05T07:44:00.679Z,3.11
2023-03-05T07:46:31.640Z,3.01
2023-03-05T07:48:59.737Z,3.15
2023-03-05T07:51:29.625Z,3.25
2023-03-05T07:53:59.651Z,3.17
2023-03-05T07:56:31.772Z,3.00
2023-03-05T07:59:00.974Z,3.17
2023-03-05T08:01:29.748Z,3.14
2023-03-05T08:03:57.615Z,3.23
2023-03-05T08:06:25.422Z,3.12
2023-03-05T08:08:54.629Z,2.99
2023-03-05T08:11:22.731Z,3.04
2023-03-05T08:13:50.823Z,3.14
2023-03-05T08:16:26.451Z,3.22
2023-03-05T08:18:57.041Z,3.34
2023-03-05T08:21:29.200Z,3.52
2023-03-05T08:23:59.204Z,3.38
2023-03-05T08:26:30.947Z,3.51
2023-03-05T08:28:59.570Z,3.50
2023-03-05T08:31:30.242Z,3.68
2023-03-05T08:34:00.242Z,3.74
2023-03-05T08:36:30.202Z,3.86
2023-03-05T08:39:00.353Z,4.06
2023-03-05T08:41:28.378Z,4.07
2023-03-05T08:43:56.318Z,4.06
2023-03-05T08:46:24.399Z,4.06
2023-03-05T08:48:52.383Z,3.86
2023-03-05T08:51:25.625Z,3.82
2023-03-05T08:53:54.422Z,3.95
2023-03-05T08:56:23.546Z,3.91
2023-03-05T08:58:52.986Z,3.79
2023-03-05T09:01:21.177Z,3.71
2023-03-05T09:03:48.985Z,3.95
2023-03-05T09:06:16.957Z,4.32
2023-03-05T09:08:44.680Z,4.54
2023-03-05T09:11:14.505Z,4.61
2023-03-05T09:13:43.844Z,4.54
2023-03-05T09:16:13.744Z,4.39
2023-03-05T09:18:42.050Z,4.35
2023-03-05T09:21:11.885Z,4.38
2023-03-05T09:23:40.387Z,4.39
2023-03-05T09:26:08.849Z,4.25
2023-03-05T09:28:36.868Z,4.24
2023-03-05T09:31:07.669Z,4.47
2023-03-05T09:33:35.838Z,4.27
2023-03-05T09:36:04.947Z,4.25
2023-03-05T09:38:33.006Z,4.10
2023-03-05T09:41:07.755Z,3.91
2023-03-05T09:43:50.684Z,4.21
2023-03-05T09:46:31.922Z,4.47
2023-03-05T09:49:08.075Z,4.52
2023-03-05T09:51:39.115Z,4.28
2023-03-05T09:54:13.420Z,4.43
2023-03-05T09:56:45.531Z,4.54
2023-03-05T09:59:24.272Z,4.63
2023-03-05T10:01:54.847Z,4.64
2023-03-05T10:04:27.316Z,4.83
2023-03-05T10:07:00.154Z,4.62
2023-03-05T10:09:42.370Z,4.53
2023-03-05T10:12:19.973Z,4.55
2023-03-05T10:14:51.736Z,4.51
2023-03-05T10:17:45.887Z,4.61
2023-03-05T10:20:56.425Z,4.49
2023-03-05T10:23:30.264Z,4.37
2023-03-05T10:26:08.453Z,4.25
2023-03-05T10:28:43.448Z,4.18
2023-03-05T10:31:35.380Z,4.16
2023-03-05T10:34:22.517Z,4.20
2023-03-05T10:37:04.165Z,4.06
2023-03-05T10:39:52.835Z,4.06
2023-03-05T10:42:31.804Z,3.93
2023-03-05T10:45:01.445Z,3.97
2023-03-05T10:47:33.047Z,3.81
2023-03-05T10:50:02.137Z,3.86
2023-03-05T10:52:35.991Z,3.84
2023-03-05T10:55:14.850Z,3.66
2023-03-05T10:57:42.813Z,3.55
2023-03-05T11:00:20.515Z,3.46
2023-03-05T11:02:58.233Z,3.37
2023-03-05T11:05:44.659Z,3.46
2023-03-05T11:08:27.496Z,3.61
2023-03-05T11:11:11.356Z,3.67
2023-03-05T11:13:47.825Z,3.77
2023-03-05T11:16:21.068Z,3.79
2023-03-05T11:18:49.267Z,3.79
2023-03-05T11:21:27.777Z,3.89
2023-03-05T11:24:06.278Z,3.90
2023-03-05T11:26:34.794Z,4.10
2023-03-05T11:29:04.865Z,4.32
2023-03-05T11:31:34.242Z,4.33
2023-03-05T11:34:04.075Z,4.35
2023-03-05T11:36:35.676Z,4.18
2023-03-05T11:39:12.373Z,4.10
2023-03-05T11:41:43.303Z,4.38
2023-03-05T11:44:15.425Z,4.07
2023-03-05T11:46:47.300Z,4.10
2023-03-05T11:49:20.949Z,4.27
2023-03-05T11:51:59.158Z,4.43
2023-03-05T11:54:34.554Z,4.49
2023-03-05T11:57:03.839Z,4.47
2023-03-05T11:59:35.631Z,4.60
2023-03-05T12:02:04.036Z,4.75
2023-03-05T12:04:35.051Z,4.63
2023-03-05T12:07:05.475Z,4.58
2023-03-05T12:09:42.227Z,4.60
2023-03-05T12:12:17.215Z,4.68
2023-03-05T12:14:52.694Z,4.34
2023-03-05T12:17:27.841Z,4.26
2023-03-05T12:20:00.820Z,4.25
2023-03-05T12:22:37.749Z,4.41
2023-03-05T12:25:25.736Z,4.53
2023-03-05T12:27:53.718Z,4.70
2023-03-05T12:30:57.661Z,4.93
2023-03-05T12:33:34.788Z,4.85
2023-03-05T12:36:35.004Z,4.62
2023-03-05T12:39:49.778Z,4.60
2023-03-05T12:42:47.010Z,4.88
2023-03-05T12:45:27.215Z,4.85
2023-03-05T12:48:32.621Z,4.92
2023-03-05T12:51:00.671Z,5.08
2023-03-05T12:53:31.183Z,5.03
2023-03-05T12:56:12.676Z,4.99
2023-03-05T12:58:44.006Z,4.84
2023-03-05T13:01:30.234Z,4.89
2023-03-05T13:04:01.831Z,4.80
2023-03-05T13:06:34.120Z,4.81
2023-03-05T13:09:05.140Z,5.05
2023-03-05T13:11:39.036Z,5.11
2023-03-05T13:14:33.126Z,5.24
2023-03-05T13:17:01.772Z,5.20
2023-03-05T13:19:31.192Z,5.23
2023-03-05T13:22:01.485Z,5.44
2023-03-05T13:24:30.670Z,5.48
2023-03-05T13:26:59.910Z,5.61
2023-03-05T13:29:30.741Z,5.74
2023-03-05T13:32:00.956Z,5.52
2023-03-05T13:34:44.575Z,5.45
2023-03-05T13:37:19.889Z,5.60
2023-03-05T13:39:51.481Z,5.56
2023-03-05T13:42:28.229Z,5.79
2023-03-05T13:44:57.638Z,5.59
2023-03-05T13:47:28.667Z,5.69
2023-03-05T13:49:59.899Z,5.66
2023-03-05T13:52:29.969Z,5.58
2023-03-05T13:54:58.580Z,5.52
2023-03-05T13:57:40.981Z,5.53
2023-03-05T14:00:28.463Z,5.45
2023-03-05T14:02:59.822Z,5.35
2023-03-05T14:05:32.506Z,5.21
2023-03-05T14:08:03.577Z,5.10
2023-03-05T14:10:37.962Z,4.78
2023-03-05T14:13:15.806Z,4.67
2023-03-05T14:15:44.406Z,4.72
2023-03-05T14:18:20.336Z,4.60
2023-03-05T14:21:06.328Z,4.57
2023-03-05T14:23:41.381Z,4.61
2023-03-05T14:26:28.726Z,4.71
2023-03-05T14:29:01.530Z,4.59
2023-03-05T14:31:32.197Z,4.55
2023-03-05T14:34:06.227Z,4.75
2023-03-05T14:36:36.310Z,4.82
2023-03-05T14:39:04.665Z,4.90
2023-03-05T14:41:37.658Z,4.95
2023-03-05T14:44:13.692Z,4.57
2023-03-05T14:46:44.833Z,4.69
2023-03-05T14:49:12.819Z,4.72
2023-03-05T14:51:46.017Z,4.61
2023-03-05T14:54:22.830Z,4.69
2023-03-05T14:56:50.895Z,4.60
2023-03-05T14:59:21.809Z,4.68
2023-03-05T15:01:50.885Z,4.66
2023-03-05T15:04:20.124Z,4.71
2023-03-05T15:06:51.010Z,4.77
2023-03-05T15:09:20.507Z,4.72
2023-03-05T15:11:48.916Z,4.54
2023-03-05T15:14:16.783Z,4.53
2023-03-05T15:16:47.725Z,4.60
2023-03-05T15:19:15.746Z,4.31
2023-03-05T15:21:43.863Z,4.24
2023-03-05T15:24:12.901Z,4.17
2023-03-05T15:26:40.747Z,4.09
2023-03-05T15:29:08.540Z,4.07
2023-03-05T15:31:38.738Z,4.18
2023-03-05T15:34:08.331Z,4.16
2023-03-05T15:36:36.193Z,4.01
2023-03-05T15:39:04.199Z,3.84
2023-03-05T15:41:32.199Z,3.75
2023-03-05T15:44:00.121Z,3.76
2023-03-05T15:46:28.036Z,3.79
2023-03-05T15:48:56.012Z,3.82
2023-03-05T15:51:25.325Z,3.73
2023-03-05T15:53:54.332Z,3.75
2023-03-05T15:56:22.282Z,3.79
2023-03-05T15:58:50.692Z,3.78
2023-03-05T16:01:19.333Z,3.69
2023-03-05T16:03:47.203Z,3.72
2023-03-05T16:08:52.217Z,3.52
2023-03-05T16:11:21.200Z,3.56
2023-03-05T16:13:50.434Z,3.69
2023-03-05T16:16:19.520Z,3.71
2023-03-05T16:18:48.998Z,3.82
2023-03-05T16:21:17.238Z,3.85
2023-03-05T16:23:45.013Z,3.78
2023-03-05T16:26:14.565Z,3.73
2023-03-05T16:28:42.413Z,3.75
2023-03-05T16:31:10.192Z,3.66
2023-03-05T16:33:38.076Z,3.69
2023-03-05T16:36:25.922Z,-145.20
2023-03-05T16:38:56.171Z,-145.20
2023-03-05T16:41:26.304Z,-145.20
2023-03-05T16:43:56.352Z,-145.20
2023-03-05T16:46:24.935Z,-145.20
2023-03-05T16:48:53.089Z,-145.20
2023-03-05T16:51:21.409Z,-145.20
2023-03-05T16:53:49.928Z,-145.20
2023-03-05T16:56:17.865Z,-145.20
2023-03-05T16:58:47.214Z,-145.20
2023-03-05T17:01:18.746Z,-145.20
2023-03-05T17:03:46.931Z,-145.20
2023-03-05T17:06:16.784Z,-145.20
2023-03-05T17:08:46.236Z,-145.20
2023-03-05T17:11:15.027Z,-145.20
2023-03-05T17:13:47.077Z,-145.20
2023-03-05T17:16:19.606Z,-145.20
2023-03-05T17:18:47.840Z,-145.20
2023-03-05T17:21:16.121Z,-145.20
2023-03-05T17:23:44.135Z,-145.20
2023-03-05T17:26:14.463Z,-145.20
2023-03-05T17:28:42.464Z,-145.20
2023-03-05T17:31:11.245Z,-145.20
2023-03-05T17:33:41.514Z,-145.20
2023-03-05T17:36:15.213Z,-145.20
2023-03-05T17:38:43.341Z,-145.20
2023-03-05T17:41:11.333Z,-145.20
2023-03-05T17:43:39.291Z,-145.20
2023-03-05T17:46:08.556Z,-145.20
2023-03-05T17:48:39.052Z,-145.20
2023-03-05T17:51:13.506Z,-145.20
2023-03-05T17:53:42.330Z,-145.20
2023-03-05T17:56:12.475Z,-145.20
2023-03-05T17:58:40.640Z,-145.20
2023-03-05T18:01:09.526Z,-145.20
2023-03-05T18:03:38.097Z,-145.20
2023-03-05T18:06:06.877Z,-145.20
2023-03-05T18:08:36.247Z,-145.20
2023-03-05T18:11:04.076Z,-145.20
2023-03-05T18:13:31.912Z,-145.20
2023-03-05T18:16:00.334Z,-145.20
2023-03-05T18:18:28.851Z,-145.20
2023-03-05T18:20:57.043Z,-145.20
2023-03-05T18:23:24.939Z,-145.20
2023-03-05T18:25:54.315Z,-145.20
2023-03-05T18:28:23.032Z,-145.20
2023-03-05T18:30:51.419Z,-145.20
2023-03-05T18:33:21.487Z,-145.20
2023-03-05T18:35:52.375Z,-145.20
2023-03-05T18:38:21.025Z,-145.20
2023-03-05T18:40:51.206Z,-145.20
2023-03-05T18:43:22.511Z,-145.20
2023-03-05T18:45:52.611Z,-145.20
2023-03-05T18:48:21.302Z,-145.20
2023-03-05T18:50:51.352Z,-145.20
2023-03-05T18:53:19.510Z,-145.20
2023-03-05T18:55:47.666Z,-145.20
2023-03-05T18:58:17.377Z,-145.20
2023-03-05T19:00:48.069Z,-145.20
2023-03-05T19:03:18.532Z,-145.20
2023-03-05T19:05:47.510Z,-145.20
2023-03-05T19:08:15.558Z,-145.20
2023-03-05T19:10:43.674Z,-145.20
2023-03-05T19:13:32.965Z,-145.20
2023-03-05T19:16:07.817Z,-145.20
2023-03-05T19:18:45.018Z,-145.20
2023-03-05T19:21:13.091Z,-145.20
2023-03-05T19:23:41.601Z,-145.20
2023-03-05T19:26:09.550Z,-145.20
2023-03-05T19:28:37.853Z,-145.20
2023-03-05T19:31:07.537Z,-145.20
2023-03-05T19:33:35.763Z,-145.20
2023-03-05T19:36:03.605Z,-145.20
2023-03-05T19:38:33.823Z,-145.20
2023-03-05T19:41:26.168Z,-145.20
2023-03-05T19:43:54.919Z,-145.20
2023-03-05T19:46:24.854Z,-145.20
2023-03-05T19:48:55.214Z,-145.20
2023-03-05T19:51:25.198Z,-145.20
2023-03-05T19:53:53.761Z,-145.20
2023-03-05T19:56:22.752Z,-145.20
2023-03-05T19:59:11.517Z,-145.20
2023-03-05T20:01:40.967Z,-145.20
2023-03-05T20:04:09.359Z,-145.20
2023-03-05T20:06:37.589Z,-145.20
2023-03-05T20:09:08.161Z,-145.20
2023-03-05T20:11:37.109Z,-145.20
2023-03-05T20:14:05.636Z,-145.20
2023-03-05T20:16:36.521Z,-145.20
2023-03-05T20:19:07.623Z,-145.20
2023-03-05T20:21:37.795Z,-145.20
2023-03-05T20:24:09.803Z,-145.20
2023-03-05T20:26:41.148Z,-145.20
2023-03-05T20:29:09.680Z,-145.20
2023-03-05T20:31:42.374Z,-145.20
2023-03-05T20:34:14.454Z,-145.20
2023-03-05T20:36:42.463Z,-145.20
2023-03-05T20:39:10.609Z,-145.20
2023-03-05T20:41:41.687Z,-145.20
2023-03-05T20:44:11.421Z,-145.20
2023-03-05T20:46:49.585Z,-145.20
2023-03-05T20:49:21.600Z,-145.20
2023-03-05T20:51:51.449Z,-145.20
2023-03-05T20:54:19.440Z,-145.20
2023-03-05T20:56:48.508Z,-145.20
2023-03-05T20:59:18.469Z,-145.20
2023-03-05T21:01:48.569Z,-145.20
2023-03-05T21:04:19.194Z,-145.20
2023-03-05T21:06:54.110Z,-145.20
2023-03-05T21:09:22.017Z,-145.20
2023-03-05T21:11:50.148Z,-145.20
2023-03-05T21:14:21.145Z,-145.20
2023-03-05T21:16:51.855Z,-145.20
2023-03-05T21:19:19.754Z,-145.20
2023-03-05T21:21:49.212Z,-145.20
2023-03-05T21:24:21.456Z,-145.20
2023-03-05T21:26:51.536Z,-145.20
2023-03-05T21:29:19.473Z,-145.20
2023-03-05T21:31:49.105Z,-145.20
2023-03-05T21:34:19.562Z,-145.20
2023-03-05T21:36:51.400Z,-145.20
2023-03-05T21:39:19.295Z,-145.20
2023-03-05T21:41:48.387Z,-145.20
2023-03-05T21:44:17.728Z,-145.20
2023-03-05T21:46:48.061Z,-145.20
2023-03-05T21:49:18.915Z,-145.20
2023-03-05T21:52:01.151Z,-145.20
2023-03-05T21:54:29.196Z,-145.20
2023-03-05T21:56:57.175Z,-145.20
2023-03-05T21:59:25.187Z,-145.20
2023-03-05T22:01:53.535Z,-145.20
2023-03-05T22:04:21.607Z,-145.20
2023-03-05T22:06:50.820Z,-145.20
2023-03-05T22:09:19.008Z,-145.20
2023-03-05T22:11:47.151Z,-145.20
2023-03-05T22:14:16.904Z,-145.20
2023-03-05T22:16:45.967Z,-145.20
2023-03-05T22:19:14.352Z,-145.20
2023-03-05T22:21:42.414Z,-145.20
2023-03-05T22:24:11.935Z,-145.20
2023-03-05T22:26:41.548Z,-145.20
2023-03-05T22:29:11.715Z,-145.20
2023-03-05T22:31:40.552Z,-145.20
2023-03-05T22:34:08.506Z,-145.20
2023-03-05T22:36:36.564Z,-145.20
2023-03-05T22:39:04.930Z,-145.20
2023-03-05T22:41:34.140Z,-145.20
2023-03-05T22:44:02.569Z,-145.20
2023-03-05T22:46:30.411Z,-145.20
2023-03-05T22:48:58.282Z,-145.20
2023-03-05T22:51:26.348Z,-145.20
2023-03-05T22:53:54.137Z,-145.20
2023-03-05T22:56:22.719Z,-145.20
2023-03-05T22:58:52.114Z,-145.20
2023-03-05T23:01:21.565Z,-145.20
2023-03-05T23:03:55.480Z,-145.20
2023-03-05T23:06:23.405Z,-145.20
2023-03-05T23:08:51.331Z,-145.20
2023-03-05T23:11:19.114Z,-145.20
2023-03-05T23:13:47.244Z,-145.20
2023-03-05T23:16:16.404Z,-145.20
2023-03-05T23:18:44.425Z,-145.20
2023-03-05T23:21:12.378Z,-145.20
2023-03-05T23:23:40.578Z,-145.20
2023-03-05T23:26:08.614Z,-145.20
2023-03-05T23:28:36.415Z,-145.20
2023-03-05T23:31:04.422Z,-145.20
2023-03-05T23:33:33.686Z,-145.20
2023-03-05T23:36:01.931Z,-145.20
2023-03-05T23:38:31.482Z,-145.20
2023-03-05T23:41:03.305Z,-145.20
2023-03-05T23:43:31.845Z,-145.20
2023-03-05T23:46:01.507Z,-145.20
2023-03-05T23:48:30.345Z,-145.20
2023-03-05T23:50:59.695Z,-145.20
2023-03-05T23:53:31.305Z,-145.20
2023-03-05T23:55:59.404Z,-145.20
2023-03-05T23:58:27.540Z,-145.20
